Aviation Digital Data Service (ADDS)

Output produced by METARs form (1108 UTC 13 December 2017)
found at http://www.aviationweather.gov/adds/metars/
 
MRLB 130600Z 06005KT CAVOK 21/18 A2991 NOSIG
MRLB 131100Z 1312/1412 26009KT 9999 FEW045 TX29/1319Z TN20/1411Z 
     TEMPO 1320/1405 09010KT
       
MRPV 132300Z 1300/1324 08020G30KT 9999 FEW030 BKN100 TX23/1218Z TN16/1408Z 
     TEMPO 1306/1316 DZ
       
MRLM 131100Z 1312/1412 29010KT 9999 SCT015 TX26/1319Z TN20/1410Z 
     TEMPO 1315/1322 23007KT RA OVC020 
     PROB30 
     TEMPO 1406/1412 RA SCT020
       
MROC 131100Z 08010G20KT CAVOK 18/14 A3004 NOSIG
MROC 131100 1312/1412 07010KT 9999 FEW030 TX23/1318Z TN18/1410Z 
     TEMPO 1314/1405 09012G22KT